sensor_id;sensor_type;location;lat;lon;timestamp;pressure;altitude;pressure_sealevel;temperature;humidity
42289;BME280;30230;47.520;19.016;2023-08-30T00:01:36;97880.19;;;17.35;100.00
42289;BME280;30230;47.520;19.016;2023-08-30T00:03:37;97882.94;;;17.35;100.00
42289;BME280;30230;47.520;19.016;2023-08-30T00:05:41;97889.50;;;17.29;100.00
42289;BME280;30230;47.520;19.016;2023-08-30T00:07:41;97888.97;;;17.32;100.00
42289;BME280;30230;47.520;19.016;2023-08-30T00:09:42;97892.25;;;17.29;100.00
42289;BME280;30230;47.520;19.016;2023-08-30T00:11:42;97896.09;;;17.23;100.00
42289;BME280;30230;47.520;19.016;2023-08-30T00:13:42;97910.03;;;17.22;100.00
42289;BME280;30230;47.520;19.016;2023-08-30T00:15:43;97900.44;;;17.24;100.00
42289;BME280;30230;47.520;19.016;2023-08-30T00:17:44;97902.06;;;17.25;100.00
42289;BME280;30230;47.520;19.016;2023-08-30T00:19:45;97905.38;;;17.22;100.00
42289;BME280;30230;47.520;19.016;2023-08-30T00:21:46;97894.47;;;17.22;100.00
42289;BME280;30230;47.520;19.016;2023-08-30T00:23:46;97904.56;;;17.27;100.00
42289;BME280;30230;47.520;19.016;2023-08-30T00:25:47;97900.44;;;17.24;100.00
42289;BME280;30230;47.520;19.016;2023-08-30T00:27:47;97903.97;;;17.30;100.00
42289;BME280;30230;47.520;19.016;2023-08-30T00:29:47;97905.41;;;17.17;100.00
42289;BME280;30230;47.520;19.016;2023-08-30T00:31:48;97902.16;;;17.10;100.00
42289;BME280;30230;47.520;19.016;2023-08-30T00:33:48;97910.94;;;17.02;100.00
42289;BME280;30230;47.520;19.016;2023-08-30T00:35:56;97908.22;;;16.97;100.00
42289;BME280;30230;47.520;19.016;2023-08-30T00:37:57;97909.00;;;17.02;100.00
42289;BME280;30230;47.520;19.016;2023-08-30T00:39:57;97905.44;;;17.07;100.00
42289;BME280;30230;47.520;19.016;2023-08-30T00:41:59;97909.22;;;17.16;100.00
42289;BME280;30230;47.520;19.016;2023-08-30T00:44:05;97904.31;;;17.13;100.00
42289;BME280;30230;47.520;19.016;2023-08-30T00:46:05;97907.06;;;17.13;100.00
42289;BME280;30230;47.520;19.016;2023-08-30T00:48:06;97911.72;;;17.07;100.00
42289;BME280;30230;47.520;19.016;2023-08-30T00:50:07;97916.59;;;17.10;100.00
42289;BME280;30230;47.520;19.016;2023-08-30T00:52:08;97932.09;;;17.25;100.00
42289;BME280;30230;47.520;19.016;2023-08-30T00:54:10;97925.50;;;17.31;100.00
42289;BME280;30230;47.520;19.016;2023-08-30T00:56:11;97924.69;;;17.31;100.00
42289;BME280;30230;47.520;19.016;2023-08-30T00:58:11;97924.22;;;17.18;100.00
42289;BME280;30230;47.520;19.016;2023-08-30T01:00:12;97928.34;;;17.11;100.00
42289;BME280;30230;47.520;19.016;2023-08-30T01:02:12;97928.88;;;17.13;100.00
42289;BME280;30230;47.520;19.016;2023-08-30T01:04:14;97920.44;;;17.09;100.00
42289;BME280;30230;47.520;19.016;2023-08-30T01:06:14;97917.69;;;17.09;100.00
42289;BME280;30230;47.520;19.016;2023-08-30T01:08:15;97907.34;;;17.11;100.00
42289;BME280;30230;47.520;19.016;2023-08-30T01:10:15;97912.00;;;17.11;100.00
42289;BME280;30230;47.520;19.016;2023-08-30T01:12:20;97913.34;;;17.08;100.00
42289;BME280;30230;47.520;19.016;2023-08-30T01:14:25;97913.03;;;17.15;100.00
42289;BME280;30230;47.520;19.016;2023-08-30T01:16:30;97915.22;;;17.18;100.00
42289;BME280;30230;47.520;19.016;2023-08-30T01:18:34;97906.22;;;17.17;100.00
42289;BME280;30230;47.520;19.016;2023-08-30T01:20:37;97910.31;;;17.15;100.00
42289;BME280;30230;47.520;19.016;2023-08-30T01:22:57;97921.25;;;17.10;100.00
42289;BME280;30230;47.520;19.016;2023-08-30T01:27:15;97907.66;;;16.95;100.00
42289;BME280;30230;47.520;19.016;2023-08-30T01:29:17;97913.63;;;17.07;100.00
42289;BME280;30230;47.520;19.016;2023-08-30T01:31:19;97912.28;;;16.99;100.00
42289;BME280;30230;47.520;19.016;2023-08-30T01:33:20;97903.56;;;16.97;100.00
42289;BME280;30230;47.520;19.016;2023-08-30T01:35:22;97900.56;;;16.93;100.00
42289;BME280;30230;47.520;19.016;2023-08-30T01:37:24;97900.31;;;16.90;100.00
42289;BME280;30230;47.520;19.016;2023-08-30T01:39:26;97907.13;;;16.92;100.00
42289;BME280;30230;47.520;19.016;2023-08-30T01:41:28;97906.03;;;16.88;100.00
42289;BME280;30230;47.520;19.016;2023-08-30T01:43:30;97909.06;;;16.87;100.00
42289;BME280;30230;47.520;19.016;2023-08-30T01:45:36;97909.88;;;16.82;100.00
42289;BME280;30230;47.520;19.016;2023-08-30T01:47:38;97908.81;;;16.78;100.00
42289;BME280;30230;47.520;19.016;2023-08-30T01:49:39;97906.34;;;16.77;100.00
42289;BME280;30230;47.520;19.016;2023-08-30T01:51:40;97908.78;;;16.83;100.00
42289;BME280;30230;47.520;19.016;2023-08-30T01:53:42;97909.34;;;16.85;100.00
42289;BME280;30230;47.520;19.016;2023-08-30T01:55:43;97908.25;;;16.81;100.00
42289;BME280;30230;47.520;19.016;2023-08-30T01:57:44;97910.69;;;16.83;100.00
42289;BME280;30230;47.520;19.016;2023-08-30T01:59:44;97915.91;;;16.74;100.00
42289;BME280;30230;47.520;19.016;2023-08-30T02:01:45;97909.91;;;16.72;100.00
42289;BME280;30230;47.520;19.016;2023-08-30T02:03:45;97907.19;;;16.72;100.00
42289;BME280;30230;47.520;19.016;2023-08-30T02:08:00;97908.28;;;16.76;100.00
42289;BME280;30230;47.520;19.016;2023-08-30T02:10:09;97911.53;;;16.73;100.00
42289;BME280;30230;47.520;19.016;2023-08-30T02:12:14;97921.06;;;16.71;100.00
42289;BME280;30230;47.520;19.016;2023-08-30T02:14:16;97921.63;;;16.73;100.00
42289;BME280;30230;47.520;19.016;2023-08-30T02:16:18;97917.28;;;16.77;100.00
42289;BME280;30230;47.520;19.016;2023-08-30T02:18:19;97926.28;;;16.72;100.00
42289;BME280;30230;47.520;19.016;2023-08-30T02:20:20;97925.72;;;16.70;100.00
42289;BME280;30230;47.520;19.016;2023-08-30T02:22:20;97927.63;;;16.70;100.00
42289;BME280;30230;47.520;19.016;2023-08-30T02:24:21;97924.06;;;16.74;100.00
42289;BME280;30230;47.520;19.016;2023-08-30T02:26:21;97917.81;;;16.74;100.00
42289;BME280;30230;47.520;19.016;2023-08-30T02:28:21;97925.72;;;16.75;100.00
42289;BME280;30230;47.520;19.016;2023-08-30T02:30:22;97927.34;;;16.81;100.00
42289;BME280;30230;47.520;19.016;2023-08-30T02:32:22;97934.16;;;16.84;100.00
42289;BME280;30230;47.520;19.016;2023-08-30T02:34:23;97928.44;;;16.80;100.00
42289;BME280;30230;47.520;19.016;2023-08-30T02:36:23;97920.81;;;16.77;100.00
42289;BME280;30230;47.520;19.016;2023-08-30T02:38:23;97926.78;;;16.79;100.00
42289;BME280;30230;47.520;19.016;2023-08-30T02:40:24;97924.06;;;16.79;100.00
42289;BME280;30230;47.520;19.016;2023-08-30T02:42:24;97923.25;;;16.79;100.00
42289;BME280;30230;47.520;19.016;2023-08-30T02:44:26;97937.16;;;16.67;100.00
42289;BME280;30230;47.520;19.016;2023-08-30T02:46:26;97940.69;;;16.67;100.00
42289;BME280;30230;47.520;19.016;2023-08-30T02:48:28;97935.56;;;16.71;100.00
42289;BME280;30230;47.520;19.016;2023-08-30T02:50:28;97941.50;;;16.68;100.00
42289;BME280;30230;47.520;19.016;2023-08-30T02:52:29;97934.97;;;16.64;100.00
42289;BME280;30230;47.520;19.016;2023-08-30T02:54:29;97944.25;;;16.73;100.00
42289;BME280;30230;47.520;19.016;2023-08-30T02:56:31;97941.25;;;16.70;100.00
42289;BME280;30230;47.520;19.016;2023-08-30T02:58:32;97936.63;;;16.75;100.00
42289;BME280;30230;47.520;19.016;2023-08-30T03:00:32;97934.72;;;16.71;100.00
42289;BME280;30230;47.520;19.016;2023-08-30T03:02:34;97933.34;;;16.73;100.00
42289;BME280;30230;47.520;19.016;2023-08-30T03:04:34;97925.72;;;16.75;100.00
42289;BME280;30230;47.520;19.016;2023-08-30T03:06:35;97925.44;;;16.77;100.00
42289;BME280;30230;47.520;19.016;2023-08-30T03:08:35;97930.34;;;16.70;100.00
42289;BME280;30230;47.520;19.016;2023-08-30T03:10:36;97930.06;;;16.66;100.00
42289;BME280;30230;47.520;19.016;2023-08-30T03:12:37;97927.34;;;16.66;100.00
42289;BME280;30230;47.520;19.016;2023-08-30T03:14:37;97922.44;;;16.68;100.00
42289;BME280;30230;47.520;19.016;2023-08-30T03:16:38;97925.44;;;16.66;100.00
42289;BME280;30230;47.520;19.016;2023-08-30T03:18:39;97932.81;;;16.66;100.00
42289;BME280;30230;47.520;19.016;2023-08-30T03:20:40;97932.22;;;16.69;100.00
42289;BME280;30230;47.520;19.016;2023-08-30T03:22:40;97926.25;;;16.62;100.00
42289;BME280;30230;47.520;19.016;2023-08-30T03:24:40;97930.09;;;16.61;100.00
42289;BME280;30230;47.520;19.016;2023-08-30T03:26:43;97935.25;;;16.67;100.00
42289;BME280;30230;47.520;19.016;2023-08-30T03:28:43;97927.91;;;16.58;100.00
42289;BME280;30230;47.520;19.016;2023-08-30T03:30:44;97940.97;;;16.66;100.00
42289;BME280;30230;47.520;19.016;2023-08-30T03:32:44;97934.97;;;16.69;100.00
42289;BME280;30230;47.520;19.016;2023-08-30T03:34:45;97936.09;;;16.73;100.00
42289;BME280;30230;47.520;19.016;2023-08-30T03:36:45;97931.72;;;16.62;100.00
42289;BME280;30230;47.520;19.016;2023-08-30T03:38:50;97921.91;;;16.56;100.00
42289;BME280;30230;47.520;19.016;2023-08-30T03:40:53;97934.72;;;16.60;100.00
42289;BME280;30230;47.520;19.016;2023-08-30T03:42:54;97912.94;;;16.50;100.00
42289;BME280;30230;47.520;19.016;2023-08-30T03:44:54;97923.53;;;16.57;100.00
42289;BME280;30230;47.520;19.016;2023-08-30T03:46:55;97922.19;;;16.54;100.00
42289;BME280;30230;47.520;19.016;2023-08-30T03:48:56;97930.38;;;16.54;100.00
42289;BME280;30230;47.520;19.016;2023-08-30T03:50:57;97932.00;;;16.50;100.00
42289;BME280;30230;47.520;19.016;2023-08-30T03:52:58;97930.91;;;16.51;100.00
42289;BME280;30230;47.520;19.016;2023-08-30T03:54:58;97935.56;;;16.51;100.00
42289;BME280;30230;47.520;19.016;2023-08-30T03:56:58;97941.53;;;16.53;100.00
42289;BME280;30230;47.520;19.016;2023-08-30T03:58:59;97944.25;;;16.53;100.00
42289;BME280;30230;47.520;19.016;2023-08-30T04:00:59;97948.06;;;16.62;100.00
42289;BME280;30230;47.520;19.016;2023-08-30T04:02:59;97951.63;;;16.57;100.00
42289;BME280;30230;47.520;19.016;2023-08-30T04:05:00;97950.81;;;16.57;100.00
42289;BME280;30230;47.520;19.016;2023-08-30T04:07:00;97949.44;;;16.59;100.00
42289;BME280;30230;47.520;19.016;2023-08-30T04:09:01;97945.34;;;16.52;100.00
42289;BME280;30230;47.520;19.016;2023-08-30T04:11:01;97955.72;;;16.60;100.00
42289;BME280;30230;47.520;19.016;2023-08-30T04:13:03;97952.44;;;16.58;100.00
42289;BME280;30230;47.520;19.016;2023-08-30T04:15:03;97956.78;;;16.64;100.00
42289;BME280;30230;47.520;19.016;2023-08-30T04:17:04;97956.53;;;16.60;100.00
42289;BME280;30230;47.520;19.016;2023-08-30T04:19:04;97954.63;;;16.61;100.00
42289;BME280;30230;47.520;19.016;2023-08-30T04:21:05;97959.50;;;16.69;100.00
42289;BME280;30230;47.520;19.016;2023-08-30T04:23:07;97953.53;;;16.62;100.00
42289;BME280;30230;47.520;19.016;2023-08-30T04:25:08;97950.28;;;16.60;100.00
42289;BME280;30230;47.520;19.016;2023-08-30T04:27:09;97954.06;;;16.64;100.00
42289;BME280;30230;47.520;19.016;2023-08-30T04:29:09;97970.16;;;16.65;100.00
42289;BME280;30230;47.520;19.016;2023-08-30T04:31:10;97966.63;;;16.65;100.00
42289;BME280;30230;47.520;19.016;2023-08-30T04:33:10;97976.16;;;16.62;100.00
42289;BME280;30230;47.520;19.016;2023-08-30T04:35:11;97981.88;;;16.61;100.00
42289;BME280;30230;47.520;19.016;2023-08-30T04:37:11;97983.22;;;16.63;100.00
42289;BME280;30230;47.520;19.016;2023-08-30T04:39:12;97986.53;;;16.55;100.00
42289;BME280;30230;47.520;19.016;2023-08-30T04:41:13;97978.06;;;16.62;100.00
42289;BME280;30230;47.520;19.016;2023-08-30T04:43:14;97980.78;;;16.57;100.00
42289;BME280;30230;47.520;19.016;2023-08-30T04:45:15;97976.44;;;16.56;100.00
42289;BME280;30230;47.520;19.016;2023-08-30T04:47:15;97982.16;;;16.64;100.00
42289;BME280;30230;47.520;19.016;2023-08-30T04:49:15;97976.97;;;16.68;100.00
42289;BME280;30230;47.520;19.016;2023-08-30T04:51:16;97981.88;;;16.61;100.00
42289;BME280;30230;47.520;19.016;2023-08-30T04:53:16;97975.06;;;16.58;100.00
42289;BME280;30230;47.520;19.016;2023-08-30T04:55:17;97976.16;;;16.52;100.00
42289;BME280;30230;47.520;19.016;2023-08-30T04:57:17;97978.59;;;16.59;100.00
42289;BME280;30230;47.520;19.016;2023-08-30T04:59:18;97980.25;;;16.60;100.00
42289;BME280;30230;47.520;19.016;2023-08-30T05:01:18;97977.78;;;16.58;100.00
42289;BME280;30230;47.520;19.016;2023-08-30T05:03:19;97974.00;;;16.59;100.00
42289;BME280;30230;47.520;19.016;2023-08-30T05:05:19;97979.19;;;16.71;100.00
42289;BME280;30230;47.520;19.016;2023-08-30T05:07:19;97984.31;;;16.67;100.00
42289;BME280;30230;47.520;19.016;2023-08-30T05:09:20;97986.75;;;16.69;100.00
42289;BME280;30230;47.520;19.016;2023-08-30T05:11:22;97990.59;;;16.68;100.00
42289;BME280;30230;47.520;19.016;2023-08-30T05:13:25;97990.06;;;16.61;100.00
42289;BME280;30230;47.520;19.016;2023-08-30T05:15:26;97989.25;;;16.60;100.00
42289;BME280;30230;47.520;19.016;2023-08-30T05:17:26;97979.69;;;16.53;100.00
42289;BME280;30230;47.520;19.016;2023-08-30T05:19:28;97975.88;;;16.64;100.00
42289;BME280;30230;47.520;19.016;2023-08-30T05:21:29;97985.69;;;16.65;100.00
42289;BME280;30230;47.520;19.016;2023-08-30T05:23:29;97989.50;;;16.64;100.00
42289;BME280;30230;47.520;19.016;2023-08-30T05:25:30;97997.69;;;16.59;100.00
42289;BME280;30230;47.520;19.016;2023-08-30T05:27:30;97984.88;;;16.64;100.00
42289;BME280;30230;47.520;19.016;2023-08-30T05:29:31;97987.59;;;16.70;100.00
42289;BME280;30230;47.520;19.016;2023-08-30T05:31:31;97985.13;;;16.63;100.00
42289;BME280;30230;47.520;19.016;2023-08-30T05:33:31;97986.25;;;16.62;100.00
42289;BME280;30230;47.520;19.016;2023-08-30T05:35:32;97993.88;;;16.60;100.00
42289;BME280;30230;47.520;19.016;2023-08-30T05:37:32;98000.16;;;16.55;100.00
42289;BME280;30230;47.520;19.016;2023-08-30T05:39:34;97991.97;;;16.55;100.00
42289;BME280;30230;47.520;19.016;2023-08-30T05:41:34;97989.50;;;16.69;100.00
42289;BME280;30230;47.520;19.016;2023-08-30T05:43:35;97995.78;;;16.64;100.00
42289;BME280;30230;47.520;19.016;2023-08-30T05:45:35;97997.69;;;16.59;100.00
42289;BME280;30230;47.520;19.016;2023-08-30T05:47:35;98001.25;;;16.64;100.00
42289;BME280;30230;47.520;19.016;2023-08-30T05:49:36;97999.88;;;16.57;100.00
42289;BME280;30230;47.520;19.016;2023-08-30T05:51:36;97997.69;;;16.59;100.00
42289;BME280;30230;47.520;19.016;2023-08-30T05:53:37;98005.31;;;16.67;100.00
42289;BME280;30230;47.520;19.016;2023-08-30T05:55:38;98003.16;;;16.74;100.00
42289;BME280;30230;47.520;19.016;2023-08-30T05:57:38;98008.59;;;16.79;100.00
42289;BME280;30230;47.520;19.016;2023-08-30T05:59:39;98013.25;;;16.79;100.00
42289;BME280;30230;47.520;19.016;2023-08-30T06:01:39;98012.44;;;16.73;100.00
42289;BME280;30230;47.520;19.016;2023-08-30T06:03:40;97999.34;;;16.80;100.00
42289;BME280;30230;47.520;19.016;2023-08-30T06:05:40;97996.06;;;16.83;100.00
42289;BME280;30230;47.520;19.016;2023-08-30T06:07:40;97993.88;;;16.85;100.00
42289;BME280;30230;47.520;19.016;2023-08-30T06:09:41;97996.63;;;16.85;100.00
42289;BME280;30230;47.520;19.016;2023-08-30T06:11:42;98002.06;;;16.85;100.00
42289;BME280;30230;47.520;19.016;2023-08-30T06:13:42;98005.31;;;16.92;100.00
42289;BME280;30230;47.520;19.016;2023-08-30T06:15:42;98009.13;;;16.97;100.00
42289;BME280;30230;47.520;19.016;2023-08-30T06:17:44;98013.19;;;17.09;100.00
42289;BME280;30230;47.520;19.016;2023-08-30T06:19:47;98012.63;;;17.23;100.00
42289;BME280;30230;47.520;19.016;2023-08-30T06:21:47;98020.53;;;17.19;100.00
42289;BME280;30230;47.520;19.016;2023-08-30T06:23:48;98029.25;;;17.16;100.00
42289;BME280;30230;47.520;19.016;2023-08-30T06:25:55;98018.09;;;17.23;100.00
42289;BME280;30230;47.520;19.016;2023-08-30T06:27:58;98018.06;;;17.28;100.00
42289;BME280;30230;47.520;19.016;2023-08-30T06:29:59;98024.06;;;17.30;100.00
42289;BME280;30230;47.520;19.016;2023-08-30T06:31:59;98015.03;;;17.34;100.00
42289;BME280;30230;47.520;19.016;2023-08-30T06:34:00;98025.94;;;17.34;100.00
42289;BME280;30230;47.520;19.016;2023-08-30T06:36:00;98027.31;;;17.42;100.00
42289;BME280;30230;47.520;19.016;2023-08-30T06:38:01;98031.91;;;17.47;100.00
42289;BME280;30230;47.520;19.016;2023-08-30T06:40:01;98036.00;;;17.54;100.00
42289;BME280;30230;47.520;19.016;2023-08-30T06:42:03;98032.44;;;17.59;100.00
42289;BME280;30230;47.520;19.016;2023-08-30T06:44:04;98038.13;;;17.62;100.00
42289;BME280;30230;47.520;19.016;2023-08-30T06:46:05;98039.78;;;17.63;100.00
42289;BME280;30230;47.520;19.016;2023-08-30T06:48:06;98035.66;;;17.66;100.00
42289;BME280;30230;47.520;19.016;2023-08-30T06:50:08;98031.81;;;17.67;100.00
42289;BME280;30230;47.520;19.016;2023-08-30T06:52:09;98029.91;;;17.67;100.00
42289;BME280;30230;47.520;19.016;2023-08-30T06:54:09;98021.13;;;17.86;100.00
42289;BME280;30230;47.520;19.016;2023-08-30T06:56:10;98019.44;;;17.95;100.00
42289;BME280;30230;47.520;19.016;2023-08-30T06:58:11;98019.13;;;18.02;100.00
42289;BME280;30230;47.520;19.016;2023-08-30T07:00:11;98013.97;;;17.95;100.00
42289;BME280;30230;47.520;19.016;2023-08-30T07:02:12;98014.19;;;18.04;100.00
42289;BME280;30230;47.520;19.016;2023-08-30T07:04:13;98023.34;;;18.23;100.00
42289;BME280;30230;47.520;19.016;2023-08-30T07:06:13;98023.56;;;18.32;100.00
42289;BME280;30230;47.520;19.016;2023-08-30T07:08:14;98025.31;;;18.17;100.00
42289;BME280;30230;47.520;19.016;2023-08-30T07:10:15;98023.31;;;18.28;100.00
42289;BME280;30230;47.520;19.016;2023-08-30T07:12:15;98033.50;;;18.57;100.00
42289;BME280;30230;47.520;19.016;2023-08-30T07:14:15;98027.75;;;18.58;100.00
42289;BME280;30230;47.520;19.016;2023-08-30T07:16:16;98030.13;;;18.70;100.00
42289;BME280;30230;47.520;19.016;2023-08-30T07:18:16;98027.59;;;18.79;100.00
42289;BME280;30230;47.520;19.016;2023-08-30T07:20:17;98020.69;;;18.86;100.00
42289;BME280;30230;47.520;19.016;2023-08-30T07:22:17;98025.91;;;18.88;100.00
42289;BME280;30230;47.520;19.016;2023-08-30T07:24:17;98029.22;;;18.80;100.00
42289;BME280;30230;47.520;19.016;2023-08-30T07:26:18;98027.69;;;18.68;100.00
42289;BME280;30230;47.520;19.016;2023-08-30T07:28:18;98022.53;;;18.62;100.00
42289;BME280;30230;47.520;19.016;2023-08-30T07:30:19;98037.31;;;18.61;100.00
42289;BME280;30230;47.520;19.016;2023-08-30T07:32:19;98036.72;;;18.64;100.00
42289;BME280;30230;47.520;19.016;2023-08-30T07:34:20;98030.69;;;18.67;99.66
42289;BME280;30230;47.520;19.016;2023-08-30T07:36:21;98040.56;;;18.68;100.00
42289;BME280;30230;47.520;19.016;2023-08-30T07:38:21;98046.91;;;18.58;100.00
42289;BME280;30230;47.520;19.016;2023-08-30T07:40:22;98050.78;;;18.52;100.00
42289;BME280;30230;47.520;19.016;2023-08-30T07:42:26;98037.84;;;18.63;100.00
42289;BME280;30230;47.520;19.016;2023-08-30T07:44:26;98050.34;;;18.74;100.00
42289;BME280;30230;47.520;19.016;2023-08-30T07:46:28;98052.28;;;18.73;100.00
42289;BME280;30230;47.520;19.016;2023-08-30T07:48:28;98057.78;;;18.68;100.00
42289;BME280;30230;47.520;19.016;2023-08-30T07:50:29;98053.94;;;18.64;100.00
42289;BME280;30230;47.520;19.016;2023-08-30T07:52:29;98061.84;;;18.71;100.00
42289;BME280;30230;47.520;19.016;2023-08-30T07:54:30;98055.31;;;18.72;100.00
42289;BME280;30230;47.520;19.016;2023-08-30T07:56:31;98060.91;;;18.52;100.00
42289;BME280;30230;47.520;19.016;2023-08-30T07:58:31;98063.44;;;18.38;100.00
42289;BME280;30230;47.520;19.016;2023-08-30T08:00:32;98062.81;;;18.51;100.00
42289;BME280;30230;47.520;19.016;2023-08-30T08:02:32;98060.31;;;18.55;100.00
42289;BME280;30230;47.520;19.016;2023-08-30T08:04:34;98055.72;;;18.45;100.00
42289;BME280;30230;47.520;19.016;2023-08-30T08:06:34;98062.84;;;18.46;100.00
42289;BME280;30230;47.520;19.016;2023-08-30T08:08:35;98064.81;;;18.40;100.00
42289;BME280;30230;47.520;19.016;2023-08-30T08:10:35;98065.75;;;18.60;100.00
42289;BME280;30230;47.520;19.016;2023-08-30T08:12:35;98062.03;;;18.85;100.00
42289;BME280;30230;47.520;19.016;2023-08-30T08:14:36;98056.47;;;18.95;100.00
42289;BME280;30230;47.520;19.016;2023-08-30T08:16:36;98060.81;;;18.96;100.00
42289;BME280;30230;47.520;19.016;2023-08-30T08:18:37;98064.66;;;18.95;100.00
42289;BME280;30230;47.520;19.016;2023-08-30T08:20:37;98063.09;;;19.18;100.00
42289;BME280;30230;47.520;19.016;2023-08-30T08:22:39;98067.72;;;19.17;99.42
42289;BME280;30230;47.520;19.016;2023-08-30T08:24:41;98073.66;;;19.30;99.28
42289;BME280;30230;47.520;19.016;2023-08-30T08:26:41;98075.75;;;19.38;98.29
42289;BME280;30230;47.520;19.016;2023-08-30T08:28:41;98064.91;;;19.27;97.90
42289;BME280;30230;47.520;19.016;2023-08-30T08:30:42;98072.53;;;19.60;99.55
42289;BME280;30230;47.520;19.016;2023-08-30T08:32:45;98069.31;;;19.76;96.76
42289;BME280;30230;47.520;19.016;2023-08-30T08:34:46;98068.09;;;19.88;97.09
42289;BME280;30230;47.520;19.016;2023-08-30T08:36:47;98071.06;;;19.91;95.51
42289;BME280;30230;47.520;19.016;2023-08-30T08:38:47;98065.91;;;19.85;95.93
42289;BME280;30230;47.520;19.016;2023-08-30T08:40:48;98069.94;;;19.92;95.96
42289;BME280;30230;47.520;19.016;2023-08-30T08:42:50;98068.03;;;19.93;94.78
42289;BME280;30230;47.520;19.016;2023-08-30T08:44:54;98065.09;;;19.84;94.61
42289;BME280;30230;47.520;19.016;2023-08-30T08:46:54;98080.28;;;19.76;95.21
42289;BME280;30230;47.520;19.016;2023-08-30T08:48:55;98076.00;;;19.89;97.21
42289;BME280;30230;47.520;19.016;2023-08-30T08:50:57;98086.81;;;19.81;95.51
42289;BME280;30230;47.520;19.016;2023-08-30T08:52:59;98081.22;;;19.67;95.38
42289;BME280;30230;47.520;19.016;2023-08-30T08:55:00;98082.91;;;19.63;95.41
42289;BME280;30230;47.520;19.016;2023-08-30T08:57:01;98080.53;;;19.51;94.95
42289;BME280;30230;47.520;19.016;2023-08-30T08:59:02;98084.41;;;19.50;96.47
42289;BME280;30230;47.520;19.016;2023-08-30T09:01:04;98090.09;;;19.53;96.29
42289;BME280;30230;47.520;19.016;2023-08-30T09:03:05;98094.47;;;19.55;96.18
42289;BME280;30230;47.520;19.016;2023-08-30T09:05:06;98090.97;;;19.49;96.83
42289;BME280;30230;47.520;19.016;2023-08-30T09:07:07;98088.25;;;19.20;96.49
42289;BME280;30230;47.520;19.016;2023-08-30T09:09:09;98090.94;;;19.25;98.33
42289;BME280;30230;47.520;19.016;2023-08-30T09:11:09;98087.38;;;19.24;97.11
42289;BME280;30230;47.520;19.016;2023-08-30T09:13:10;98092.31;;;19.22;97.25
42289;BME280;30230;47.520;19.016;2023-08-30T09:15:10;98090.38;;;19.28;98.09
42289;BME280;30230;47.520;19.016;2023-08-30T09:17:10;98100.16;;;19.34;97.42
42289;BME280;30230;47.520;19.016;2023-08-30T09:19:11;98102.47;;;19.22;97.87
42289;BME280;30230;47.520;19.016;2023-08-30T09:21:11;98100.94;;;19.11;97.09
42289;BME280;30230;47.520;19.016;2023-08-30T09:23:19;98115.94;;;18.84;98.05
42289;BME280;30230;47.520;19.016;2023-08-30T09:25:27;98113.66;;;18.91;99.84
42289;BME280;30230;47.520;19.016;2023-08-30T09:27:34;98113.66;;;18.91;100.00
42289;BME280;30230;47.520;19.016;2023-08-30T09:29:35;98120.72;;;19.03;100.00
42289;BME280;30230;47.520;19.016;2023-08-30T09:31:37;98117.06;;;18.78;98.19
42289;BME280;30230;47.520;19.016;2023-08-30T09:33:39;98109.97;;;18.77;99.30
42289;BME280;30230;47.520;19.016;2023-08-30T09:35:43;98114.25;;;18.88;100.00
42289;BME280;30230;47.520;19.016;2023-08-30T09:37:45;98115.13;;;18.84;100.00
42289;BME280;30230;47.520;19.016;2023-08-30T09:39:52;98123.84;;;18.86;100.00
42289;BME280;30230;47.520;19.016;2023-08-30T09:41:54;98121.38;;;18.89;98.96
42289;BME280;30230;47.520;19.016;2023-08-30T09:43:55;98117.50;;;18.90;99.36
42289;BME280;30230;47.520;19.016;2023-08-30T09:45:57;98118.34;;;18.91;100.00
42289;BME280;30230;47.520;19.016;2023-08-30T09:48:00;98118.41;;;19.15;98.81
42289;BME280;30230;47.520;19.016;2023-08-30T09:50:01;98124.94;;;19.19;97.71
42289;BME280;30230;47.520;19.016;2023-08-30T09:52:03;98122.22;;;19.19;97.10
42289;BME280;30230;47.520;19.016;2023-08-30T09:54:13;98123.84;;;19.20;96.36
42289;BME280;30230;47.520;19.016;2023-08-30T09:56:15;98118.88;;;19.22;97.80
42289;BME280;30230;47.520;19.016;2023-08-30T09:58:17;98122.13;;;19.29;97.38
42289;BME280;30230;47.520;19.016;2023-08-30T10:00:18;98130.81;;;19.36;98.33
42289;BME280;30230;47.520;19.016;2023-08-30T10:02:19;98128.97;;;19.56;97.78
42289;BME280;30230;47.520;19.016;2023-08-30T10:04:20;98130.47;;;19.43;96.12
42289;BME280;30230;47.520;19.016;2023-08-30T10:06:23;98127.97;;;19.46;95.77
42289;BME280;30230;47.520;19.016;2023-08-30T10:08:25;98132.38;;;19.42;96.46
42289;BME280;30230;47.520;19.016;2023-08-30T10:10:31;98129.44;;;19.39;95.77
42289;BME280;30230;47.520;19.016;2023-08-30T10:12:32;98119.38;;;19.29;97.03
42289;BME280;30230;47.520;19.016;2023-08-30T10:14:32;98125.63;;;19.35;97.05
42289;BME280;30230;47.520;19.016;2023-08-30T10:18:50;98120.66;;;19.37;96.30
42289;BME280;30230;47.520;19.016;2023-08-30T10:20:54;98120.31;;;19.43;95.69
42289;BME280;30230;47.520;19.016;2023-08-30T10:22:56;98121.38;;;19.47;95.64
42289;BME280;30230;47.520;19.016;2023-08-30T10:25:05;98129.78;;;19.61;96.95
42289;BME280;30230;47.520;19.016;2023-08-30T10:27:08;98127.22;;;19.70;94.99
42289;BME280;30230;47.520;19.016;2023-08-30T10:29:08;98129.91;;;19.75;93.75
42289;BME280;30230;47.520;19.016;2023-08-30T10:31:10;98128.03;;;19.70;94.50
42289;BME280;30230;47.520;19.016;2023-08-30T10:33:13;98120.63;;;19.71;94.99
42289;BME280;30230;47.520;19.016;2023-08-30T10:35:17;98127.72;;;19.72;95.13